Time;durP1;ratioP1;P1;durP2;ratioP2;P2;SDS_P1;SDS_P2;PMS_P1;PMS_P2;Temp;Humidity;BMP_temperature;BMP_pressure;BME280_temperature;BME280_humidity;BME280_pressure;Samples;Min_cycle;Max_cycle;Signal;HPM_P1;HPM_P2
2022/08/04 00:01:36;;;;;;;2.20;1.30;;;;;;;25.40;42.92;98803.00;4996987;28;20474;-81
2022/08/04 00:04:07;;;;;;;2.03;1.40;;;;;;;25.39;42.85;98796.03;4979769;28;20575;-80
2022/08/04 00:06:46;;;;;;;2.35;1.58;;;;;;;25.46;42.75;98802.97;4979549;28;20088;-80
2022/08/04 00:09:47;;;;;;;1.83;1.45;;;;;;;25.47;42.70;98798.44;4979730;28;20038;-80
2022/08/04 00:12:13;;;;;;;3.10;1.60;;;;;;;25.48;42.79;98808.13;4949764;28;20125;-81
2022/08/04 00:14:45;;;;;;;2.55;1.38;;;;;;;25.46;42.80;98802.97;4979629;28;20034;-80
2022/08/04 00:17:10;;;;;;;3.10;1.42;;;;;;;25.50;42.86;98802.56;4963292;28;20037;-80
2022/08/04 00:19:47;;;;;;;5.60;1.42;;;;;;;25.41;43.00;98800.13;4979200;28;20042;-80
2022/08/04 00:22:13;;;;;;;2.67;1.60;;;;;;;25.37;43.01;98804.25;4979055;28;20523;-80
2022/08/04 00:24:39;;;;;;;2.85;1.60;;;;;;;25.37;43.03;98801.56;4963182;28;20121;-80
2022/08/04 00:27:05;;;;;;;2.40;1.33;;;;;;;25.30;43.18;98794.63;4979337;28;20085;-81
2022/08/04 00:29:32;;;;;;;2.97;1.55;;;;;;;25.27;43.01;98799.31;4963200;28;20157;-80
2022/08/04 00:31:57;;;;;;;3.83;1.55;;;;;;;25.24;43.00;98794.41;4963522;28;20107;-80
2022/08/04 00:34:24;;;;;;;2.78;1.38;;;;;;;25.18;43.29;98797.09;4979036;28;20519;-80
2022/08/04 00:36:49;;;;;;;7.07;1.60;;;;;;;25.15;43.12;98802.88;4962686;28;20073;-80
2022/08/04 00:39:15;;;;;;;3.08;1.45;;;;;;;25.20;42.72;98805.72;4978815;28;20434;-80
2022/08/04 00:41:40;;;;;;;3.00;1.50;;;;;;;25.21;43.02;98794.81;4978107;28;20042;-80
2022/08/04 00:44:28;;;;;;;2.53;1.45;;;;;;;25.23;42.75;98794.63;4996294;28;20038;-80
2022/08/04 00:47:04;;;;;;;3.42;1.40;;;;;;;25.25;42.62;98804.06;4995206;28;20038;-80
2022/08/04 00:49:47;;;;;;;2.95;1.50;;;;;;;25.28;42.32;98805.50;4996971;28;20037;-80
2022/08/04 00:52:36;;;;;;;1.92;1.40;;;;;;;25.22;42.47;98795.63;4994855;28;20034;-80
2022/08/04 00:55:40;;;;;;;4.72;1.40;;;;;;;25.24;42.25;98797.06;4978821;28;20490;-81
2022/08/04 00:58:43;;;;;;;4.28;1.70;;;;;;;25.25;42.44;98800.56;4898137;29;20096;-80
2022/08/04 01:01:32;;;;;;;4.88;1.55;;;;;;;25.22;42.09;98796.47;4898285;29;20034;-80
2022/08/04 01:04:03;;;;;;;4.07;1.30;;;;;;;25.18;42.55;98797.91;4868756;29;20048;-80
2022/08/04 01:06:52;;;;;;;2.60;1.30;;;;;;;25.19;42.03;98802.22;4898132;29;20075;-80
2022/08/04 01:09:39;;;;;;;3.83;1.40;;;;;;;25.21;42.22;98794.81;4884817;29;20119;-80
2022/08/04 01:12:31;;;;;;;3.00;1.47;;;;;;;25.18;42.26;98791.75;4898020;29;20087;-81
2022/08/04 01:15:06;;;;;;;3.15;1.42;;;;;;;25.12;42.35;98789.94;4898124;29;20812;-80
2022/08/04 01:17:34;;;;;;;2.28;1.45;;;;;;;25.04;42.17;98789.13;4898039;29;20136;-80
2022/08/04 01:20:05;;;;;;;;;;;;;;;25.01;42.54;98789.53;4898215;29;20047;-80
2022/08/04 01:22:31;;;;;;;3.47;1.42;;;;;;;25.00;42.45;98793.25;4897524;29;19943;-80
2022/08/04 01:25:15;;;;;;;2.60;1.50;;;;;;;25.01;42.41;98794.88;4897661;29;20642;-80
2022/08/04 01:28:02;;;;;;;1.60;1.30;;;;;;;25.06;42.25;98795.09;4897898;29;20136;-81
2022/08/04 01:30:27;;;;;;;3.73;1.50;;;;;;;25.04;42.42;98790.97;4897855;29;20032;-80
2022/08/04 01:33:01;;;;;;;6.15;1.58;;;;;;;24.97;42.51;98784.81;4945492;28;20046;-79
2022/08/04 01:35:35;;;;;;;2.58;1.40;;;;;;;24.98;42.47;98787.28;4977916;28;20033;-79
2022/08/04 01:38:04;;;;;;;7.72;1.70;;;;;;;25.02;42.51;98796.53;4978197;28;20030;-79
2022/08/04 01:40:29;;;;;;;2.78;1.30;;;;;;;25.02;42.50;98785.84;4978056;28;20409;-79
2022/08/04 01:42:55;;;;;;;1.60;1.30;;;;;;;25.05;42.51;98790.75;4978429;28;20040;-79
2022/08/04 01:45:22;;;;;;;5.35;1.60;;;;;;;25.00;42.40;98793.25;4977630;28;20034;-79
2022/08/04 01:47:50;;;;;;;2.92;1.70;;;;;;;24.95;42.71;98785.03;4977741;28;20034;-79
2022/08/04 01:50:16;;;;;;;3.42;1.50;;;;;;;24.98;42.53;98789.13;4961395;28;20035;-79
2022/08/04 01:52:42;;;;;;;2.28;1.63;;;;;;;24.92;42.55;98785.44;4977887;28;20038;-80
2022/08/04 01:55:09;;;;;;;4.40;1.98;;;;;;;24.90;42.74;98787.50;4977586;28;20038;-79
2022/08/04 01:57:40;;;;;;;2.88;1.70;;;;;;;24.86;42.76;98783.59;4961651;28;20034;-80
2022/08/04 02:00:06;;;;;;;4.35;1.80;;;;;;;24.85;42.70;98787.31;4977297;28;20032;-82
2022/08/04 02:02:32;;;;;;;2.00;1.67;;;;;;;24.85;42.57;98784.66;4961457;28;20125;-80
2022/08/04 02:04:58;;;;;;;2.75;1.90;;;;;;;24.85;42.50;98784.66;4957653;28;20486;-80
2022/08/04 02:07:29;;;;;;;3.28;1.73;;;;;;;24.83;42.50;98789.38;4974005;28;20034;-80
2022/08/04 02:09:58;;;;;;;2.78;1.67;;;;;;;24.79;42.46;98786.28;4974096;28;20088;-79
2022/08/04 02:12:51;;;;;;;2.95;1.70;;;;;;;24.85;42.47;98790.81;4975351;28;20038;-80
2022/08/04 02:15:23;;;;;;;2.45;1.60;;;;;;;24.85;42.42;98790.81;4965816;28;20049;-80
2022/08/04 02:18:04;;;;;;;3.38;1.63;;;;;;;24.82;42.21;98791.22;4973996;28;20035;-80
2022/08/04 02:20:33;;;;;;;7.53;2.00;;;;;;;24.78;42.25;98790.00;4973964;28;20121;-80
2022/08/04 02:23:02;;;;;;;4.20;1.73;;;;;;;24.82;42.45;98795.75;4974271;28;20126;-80
2022/08/04 02:25:28;;;;;;;4.15;1.50;;;;;;;24.80;42.26;98790.63;4958574;28;20162;-80
2022/08/04 02:28:29;;;;;;;4.55;1.58;;;;;;;24.85;41.80;98801.47;4957846;28;20054;-79
2022/08/04 02:31:03;;;;;;;3.05;1.50;;;;;;;24.78;42.22;98800.69;4915369;29;20043;-80
2022/08/04 02:33:34;;;;;;;2.53;1.55;;;;;;;24.78;42.11;98797.19;4915273;29;20036;-79
2022/08/04 02:36:01;;;;;;;2.00;1.55;;;;;;;24.71;42.16;98798.00;4915686;29;20624;-79
2022/08/04 02:38:58;;;;;;;1.88;1.42;;;;;;;24.71;42.06;98794.53;4883690;29;20028;-80
2022/08/04 02:41:25;;;;;;;2.70;1.50;;;;;;;24.73;42.20;98800.47;4859214;29;20053;-80
2022/08/04 02:43:51;;;;;;;3.40;1.50;;;;;;;24.73;42.07;98798.63;4843790;29;20213;-80
2022/08/04 02:46:20;;;;;;;3.40;1.58;;;;;;;24.72;42.08;98794.31;4859251;29;20120;-79
2022/08/04 02:48:46;;;;;;;3.45;1.85;;;;;;;24.74;41.72;98794.09;4858980;29;20525;-79
2022/08/04 02:51:12;;;;;;;2.17;1.45;;;;;;;24.74;41.73;98797.59;4859096;29;20049;-80
2022/08/04 02:53:38;;;;;;;3.15;1.70;;;;;;;24.80;41.83;98806.63;4859395;29;20132;-80
2022/08/04 02:56:03;;;;;;;6.13;1.80;;;;;;;24.82;41.87;98806.41;4858781;29;20108;-80
2022/08/04 02:58:31;;;;;;;2.88;1.48;;;;;;;24.82;41.47;98809.09;4859146;29;20072;-80
2022/08/04 03:00:57;;;;;;;3.53;1.70;;;;;;;24.73;41.61;98801.31;4859173;29;20041;-79
2022/08/04 03:03:30;;;;;;;3.45;1.80;;;;;;;24.73;41.79;98803.13;4843400;29;20097;-79
2022/08/04 03:06:10;;;;;;;4.13;2.05;;;;;;;24.75;41.50;98811.78;4858480;29;20041;-79
2022/08/04 03:08:57;;;;;;;3.17;1.60;;;;;;;24.74;41.60;98816.28;4933555;29;20038;-80
2022/08/04 03:11:41;;;;;;;4.50;1.67;;;;;;;24.74;41.65;98813.59;4933463;29;20046;-80
2022/08/04 03:14:12;;;;;;;2.53;1.58;;;;;;;24.78;41.53;98813.19;4917816;29;20381;-80
2022/08/04 03:16:43;;;;;;;3.38;1.63;;;;;;;24.75;41.57;98814.44;4935409;28;20043;-80
2022/08/04 03:19:14;;;;;;;2.33;1.67;;;;;;;24.76;41.46;98817.94;4974133;28;20465;-80
2022/08/04 03:21:46;;;;;;;2.45;1.50;;;;;;;24.91;41.10;98815.84;4972469;28;20042;-80
2022/08/04 03:24:20;;;;;;;2.88;1.60;;;;;;;24.95;40.69;98819.72;4974431;28;20445;-80
2022/08/04 03:27:03;;;;;;;2.28;1.52;;;;;;;24.93;40.74;98825.28;4973107;28;20035;-79
2022/08/04 03:29:47;;;;;;;3.00;1.48;;;;;;;24.95;40.64;98824.25;4972609;28;20042;-79
2022/08/04 03:32:40;;;;;;;4.22;1.48;;;;;;;24.99;40.47;98820.97;4973923;28;20375;-79
2022/08/04 03:35:15;;;;;;;2.03;1.30;;;;;;;25.05;40.35;98824.66;4973627;28;20109;-78
2022/08/04 03:38:17;;;;;;;2.92;1.42;;;;;;;25.14;40.14;98827.91;4972465;28;20042;-80
2022/08/04 03:40:49;;;;;;;6.68;1.20;;;;;;;25.62;39.02;98831.06;4989552;28;20045;-82
2022/08/04 03:43:49;;;;;;;4.93;1.73;;;;;;;26.32;37.48;98826.78;5004625;28;20094;-80
2022/08/04 03:46:36;;;;;;;2.78;1.60;;;;;;;26.90;36.21;98823.84;4936200;29;20554;-81
2022/08/04 03:49:28;;;;;;;3.05;1.38;;;;;;;27.37;35.47;98822.56;4952251;29;20573;-81
2022/08/04 03:55:24;;;;;;;3.17;1.38;;;;;;;28.55;33.17;98822.16;4895710;29;20564;-81
2022/08/04 03:57:59;;;;;;;3.78;1.50;;;;;;;29.05;32.43;98827.09;4879842;29;20159;-80
2022/08/04 04:00:56;;;;;;;3.92;1.50;;;;;;;29.54;31.16;98829.47;4879851;29;20080;-80
2022/08/04 04:03:25;;;;;;;;;;;;;;;30.20;30.56;98829.91;4865998;29;20056;-81
2022/08/04 04:06:19;;;;;;;4.78;1.23;;;;;;;30.79;29.75;98828.69;4879213;29;19945;-79
2022/08/04 04:09:19;;;;;;;1.80;1.30;;;;;;;31.34;28.73;98824.34;4879776;29;20131;-81
2022/08/04 04:12:09;;;;;;;3.65;1.35;;;;;;;31.87;28.18;98830.91;4860879;29;20076;-80
2022/08/04 04:15:02;;;;;;;3.20;1.20;;;;;;;32.32;27.64;98828.91;4895201;29;20533;-80
2022/08/04 04:17:40;;;;;;;1.90;1.10;;;;;;;32.84;27.06;98821.22;4895267;29;20041;-80
2022/08/04 04:20:29;;;;;;;4.05;1.40;;;;;;;33.25;26.08;98822.25;4895278;29;20032;-80
2022/08/04 04:23:04;;;;;;;3.40;1.38;;;;;;;33.69;25.51;98816.44;4934109;29;20043;-80
2022/08/04 04:26:11;;;;;;;2.40;1.08;;;;;;;34.21;25.34;98820.06;4952281;29;20039;-80
2022/08/04 04:28:36;;;;;;;2.22;1.17;;;;;;;34.75;24.03;98820.63;4934608;29;20153;-80
2022/08/04 04:31:05;;;;;;;4.28;2.10;;;;;;;35.13;23.33;98819.16;4957093;28;20043;-81
2022/08/04 04:33:39;;;;;;;5.40;1.85;;;;;;;35.56;23.14;98815.22;4991258;28;20418;-81
2022/08/04 04:36:39;;;;;;;3.97;1.80;;;;;;;35.97;22.86;98813.06;4991584;28;20045;-81
2022/08/04 04:39:07;;;;;;;2.38;1.90;;;;;;;36.50;22.31;98815.13;4994942;28;20105;-81
2022/08/04 04:41:58;;;;;;;3.60;2.20;;;;;;;36.99;21.74;98812.47;4994344;28;20042;-80
2022/08/04 04:44:31;;;;;;;3.33;2.13;;;;;;;37.38;21.42;98804.09;4994861;28;20509;-80
2022/08/04 04:47:11;;;;;;;5.35;2.35;;;;;;;37.89;20.65;98807.25;4994629;28;20018;-80
2022/08/04 04:49:44;;;;;;;8.40;2.28;;;;;;;38.33;20.36;98814.19;4979536;28;20049;-80
2022/08/04 04:52:27;;;;;;;5.35;2.22;;;;;;;38.80;20.28;98815.00;4978750;28;20034;-81
2022/08/04 04:55:04;;;;;;;3.92;1.80;;;;;;;39.16;17.97;98819.00;4980352;28;20485;-81
2022/08/04 04:57:33;;;;;;;5.80;1.63;;;;;;;39.45;17.59;98819.44;4994470;28;20342;-81
2022/08/04 05:00:00;;;;;;;5.30;1.50;;;;;;;39.86;16.93;98816.94;4962152;28;20042;-79
2022/08/04 05:02:38;;;;;;;8.65;1.77;;;;;;;40.10;16.40;98822.91;4978617;28;20490;-84
2022/08/04 05:05:21;;;;;;;8.82;1.58;;;;;;;40.47;15.92;98820.09;4994384;28;20050;-83
2022/08/04 05:07:58;;;;;;;5.32;1.55;;;;;;;40.77;16.14;98820.41;4995047;28;20093;-82
2022/08/04 05:10:39;;;;;;;3.25;1.40;;;;;;;41.04;15.73;98822.97;4977841;28;20124;-83
2022/08/04 05:13:37;;;;;;;4.45;1.40;;;;;;;41.31;16.69;98820.31;4994562;28;20034;-80
2022/08/04 05:16:50;;;;;;;11.93;1.60;;;;;;;41.82;15.98;98826.22;4982222;28;20034;-86
2022/08/04 05:19:41;;;;;;;11.57;1.55;;;;;;;42.24;15.52;98819.09;5006716;23;20259;-79
2022/08/04 05:22:38;;;;;;;5.97;1.45;;;;;;;42.83;14.86;98828.59;4954233;29;20027;-78
2022/08/04 05:25:11;;;;;;;8.30;1.52;;;;;;;43.46;14.18;98825.22;4957121;28;20046;-79
2022/08/04 05:27:45;;;;;;;9.35;1.63;;;;;;;43.89;14.14;98819.41;4936249;29;20043;-83
2022/08/04 05:30:11;;;;;;;10.77;1.65;;;;;;;44.17;13.70;98820.75;4930632;29;20043;-77
2022/08/04 05:32:42;;;;;;;13.43;1.50;;;;;;;44.59;13.54;98828.94;4955899;29;20089;-76
2022/08/04 05:35:10;;;;;;;18.13;1.48;;;;;;;45.16;13.19;98836.31;4936047;29;20032;-77
2022/08/04 05:37:37;;;;;;;7.97;1.40;;;;;;;45.76;12.31;98832.19;4920964;29;20139;-80
2022/08/04 05:40:04;;;;;;;4.60;1.15;;;;;;;46.25;11.84;98828.47;4936160;29;20063;-68
2022/08/04 05:42:35;;;;;;;6.50;1.30;;;;;;;46.64;11.66;98823.16;4937325;29;20102;-69
2022/08/04 05:45:01;;;;;;;9.40;1.40;;;;;;;47.02;11.27;98830.00;4937170;29;20207;-71
2022/08/04 05:47:26;;;;;;;8.60;1.33;;;;;;;47.31;11.17;98833.47;4950609;29;20031;-71
2022/08/04 05:49:54;;;;;;;6.03;1.40;;;;;;;47.57;10.94;98843.88;4920739;29;20043;-69
2022/08/04 05:52:20;;;;;;;4.57;1.33;;;;;;;47.70;11.32;98841.81;4956679;29;20027;-70
2022/08/04 05:54:45;;;;;;;7.57;1.30;;;;;;;47.80;11.19;98846.78;4937118;29;20048;-74
2022/08/04 05:57:11;;;;;;;5.70;1.67;;;;;;;48.01;11.30;98833.38;4936823;29;20620;-71
2022/08/04 05:59:38;;;;;;;7.50;2.13;;;;;;;48.21;10.90;98838.09;4952580;29;20046;-71
2022/08/04 06:02:04;;;;;;;7.85;1.95;;;;;;;48.35;10.75;98833.59;4921441;29;20178;-71
2022/08/04 06:04:40;;;;;;;11.20;2.17;;;;;;;48.43;10.93;98831.00;4938866;28;20037;-71
2022/08/04 06:07:05;;;;;;;;;;;;;;;48.39;10.77;98830.09;4972625;28;20030;-75
2022/08/04 06:09:31;;;;;;;9.37;2.73;;;;;;;48.60;10.79;98836.03;4970241;28;20404;-70
2022/08/04 06:12:01;;;;;;;9.17;2.67;;;;;;;48.60;10.44;98833.28;4940018;28;20658;-71
2022/08/04 06:14:27;;;;;;;11.55;2.78;;;;;;;48.70;10.37;98834.59;4969663;28;20019;-71
2022/08/04 06:16:52;;;;;;;11.83;3.03;;;;;;;48.75;10.47;98830.72;4972164;28;20509;-72
2022/08/04 06:19:19;;;;;;;15.60;3.05;;;;;;;48.78;10.24;98818.94;4953202;28;20102;-71
2022/08/04 06:21:47;;;;;;;11.68;2.85;;;;;;;48.81;10.46;98818.19;4939160;28;20482;-71
2022/08/04 06:24:15;;;;;;;17.27;3.20;;;;;;;48.90;10.37;98819.53;4970874;28;20141;-72
2022/08/04 06:26:40;;;;;;;8.80;2.97;;;;;;;48.95;10.08;98817.59;4953890;28;20027;-71
2022/08/04 06:29:15;;;;;;;9.63;3.00;;;;;;;48.94;10.31;98818.78;4966084;28;20027;-74
2022/08/04 06:31:56;;;;;;;12.52;3.40;;;;;;;48.95;10.57;98823.94;4969279;28;20035;-76
2022/08/04 06:34:22;;;;;;;13.18;3.60;;;;;;;48.91;10.20;98825.84;4954031;28;20113;-76
2022/08/04 06:36:47;;;;;;;13.27;3.03;;;;;;;48.91;10.15;98817.53;4935983;28;20130;-75
2022/08/04 06:39:13;;;;;;;9.17;3.17;;;;;;;48.88;10.25;98812.75;4970025;28;20041;-73
2022/08/04 06:41:38;;;;;;;12.40;3.13;;;;;;;48.85;10.44;98819.03;4952018;28;20355;-72
2022/08/04 06:44:06;;;;;;;7.67;2.83;;;;;;;48.84;10.12;98825.75;4970993;28;20407;-75
2022/08/04 06:46:33;;;;;;;8.68;3.10;;;;;;;48.77;10.31;98822.84;4952468;28;20039;-75
2022/08/04 06:48:58;;;;;;;6.75;2.63;;;;;;;48.76;10.61;98821.22;4953664;28;20035;-71
2022/08/04 06:51:24;;;;;;;8.77;2.57;;;;;;;48.69;10.34;98819.94;4970445;28;20039;-71
2022/08/04 06:53:50;;;;;;;8.23;3.03;;;;;;;48.60;10.33;98822.19;4970505;28;20514;-69
2022/08/04 06:56:16;;;;;;;6.50;2.92;;;;;;;48.51;10.25;98819.66;4970140;28;20801;-73
2022/08/04 06:58:41;;;;;;;21.77;3.00;;;;;;;48.43;10.49;98826.25;4970143;28;20039;-72
2022/08/04 07:01:07;;;;;;;21.83;3.07;;;;;;;48.22;11.58;98823.06;4954429;28;20086;-72
2022/08/04 07:03:32;;;;;;;13.57;3.00;;;;;;;47.99;11.35;98819.06;4968701;28;20273;-70
2022/08/04 07:05:58;;;;;;;9.17;3.10;;;;;;;47.95;11.30;98822.94;4970119;28;20050;-69
2022/08/04 07:08:23;;;;;;;11.33;3.07;;;;;;;47.90;11.05;98826.00;4969460;28;20045;-72
2022/08/04 07:10:49;;;;;;;7.50;2.77;;;;;;;47.83;11.03;98826.69;4986241;28;20027;-71
2022/08/04 07:13:14;;;;;;;8.63;2.87;;;;;;;47.79;11.41;98823.03;4970515;28;20030;-70
2022/08/04 07:15:40;;;;;;;10.60;2.53;;;;;;;47.69;11.50;98818.91;4970179;28;20094;-69
2022/08/04 07:18:06;;;;;;;10.70;2.85;;;;;;;47.61;11.49;98817.91;4967107;28;20369;-74
2022/08/04 07:20:32;;;;;;;8.73;2.47;;;;;;;47.52;11.21;98811.78;4953729;28;20418;-69
2022/08/04 07:22:59;;;;;;;7.93;2.33;;;;;;;47.45;11.25;98811.66;4954238;28;20073;-70
2022/08/04 07:25:24;;;;;;;10.30;2.60;;;;;;;47.30;11.77;98818.81;4953962;28;20093;-70
2022/08/04 07:27:50;;;;;;;10.40;2.43;;;;;;;47.13;12.17;98811.75;4968936;28;20039;-71
2022/08/04 07:30:15;;;;;;;6.03;2.30;;;;;;;47.06;11.82;98806.03;4970563;28;20090;-72
2022/08/04 07:32:42;;;;;;;6.40;2.30;;;;;;;47.01;12.02;98804.34;4953396;28;20042;-70
2022/08/04 07:35:08;;;;;;;7.43;1.92;;;;;;;46.98;11.51;98815.34;4967515;28;20027;-71
2022/08/04 07:37:34;;;;;;;5.97;2.13;;;;;;;46.92;11.78;98807.31;4970360;28;20037;-69
2022/08/04 07:39:59;;;;;;;7.67;2.40;;;;;;;46.85;12.13;98804.34;4953766;28;20278;-70
2022/08/04 07:42:25;;;;;;;8.10;1.93;;;;;;;46.81;11.59;98806.22;4970356;28;20033;-71
2022/08/04 07:44:50;;;;;;;5.53;1.73;;;;;;;46.69;12.05;98806.34;4969321;28;20297;-71
2022/08/04 07:47:16;;;;;;;10.03;2.17;;;;;;;46.62;12.06;98801.44;4968895;28;20035;-74
2022/08/04 07:49:41;;;;;;;8.77;2.10;;;;;;;46.48;12.78;98796.34;4954078;28;20034;-72
2022/08/04 07:52:07;;;;;;;8.43;2.13;;;;;;;46.25;12.80;98796.16;4953512;28;20121;-69
2022/08/04 07:54:33;;;;;;;5.07;2.10;;;;;;;46.21;13.53;98801.59;4951891;28;20486;-70
2022/08/04 07:56:58;;;;;;;8.37;1.83;;;;;;;46.19;12.76;98795.59;4986060;28;20106;-71
2022/08/04 07:59:24;;;;;;;7.97;1.73;;;;;;;46.15;12.45;98797.47;4969949;28;20023;-71
2022/08/04 08:01:49;;;;;;;3.93;1.50;;;;;;;46.10;12.46;98806.00;4967704;28;20057;-69
2022/08/04 08:04:15;;;;;;;4.87;1.50;;;;;;;45.96;12.85;98797.31;4970353;28;20058;-70
2022/08/04 08:06:40;;;;;;;7.33;1.47;;;;;;;45.84;13.14;98793.47;4968580;28;20503;-72
2022/08/04 08:09:14;;;;;;;8.00;1.70;;;;;;;45.80;12.82;98800.84;4967057;28;20146;-74
2022/08/04 08:11:48;;;;;;;7.22;1.42;;;;;;;45.76;13.25;98794.38;4954172;28;20130;-70
2022/08/04 08:14:14;;;;;;;4.53;1.40;;;;;;;45.76;13.33;98788.09;4940518;28;20037;-71
2022/08/04 08:16:40;;;;;;;5.20;1.20;;;;;;;45.78;12.66;98788.56;4957092;28;20038;-69
2022/08/04 08:19:06;;;;;;;3.77;1.40;;;;;;;45.75;12.71;98786.47;4973129;28;20062;-68
2022/08/04 08:21:32;;;;;;;2.90;1.30;;;;;;;45.72;13.08;98787.16;4971643;28;20035;-69
2022/08/04 08:23:57;;;;;;;3.87;1.30;;;;;;;45.67;12.79;98783.53;4989899;28;20507;-68
2022/08/04 08:26:23;;;;;;;3.10;1.20;;;;;;;45.65;12.79;98780.31;4957451;28;20042;-69
2022/08/04 08:28:48;;;;;;;3.10;1.20;;;;;;;45.53;13.05;98772.06;4989250;28;20102;-69
2022/08/04 08:31:14;;;;;;;5.00;1.53;;;;;;;45.61;12.94;98778.59;4989650;28;20063;-70
2022/08/04 08:33:39;;;;;;;5.47;1.33;;;;;;;45.58;12.74;98773.78;4974289;28;20035;-69
2022/08/04 08:36:41;;;;;;;2.60;1.20;;;;;;;45.53;13.21;98772.06;4971719;28;20023;-67
2022/08/04 08:39:15;;;;;;;5.07;1.40;;;;;;;45.48;13.44;98775.91;4952916;28;20035;-72
2022/08/04 08:42:14;;;;;;;7.13;1.65;;;;;;;45.44;13.07;98772.22;4972800;28;20034;-69
2022/08/04 08:45:04;;;;;;;6.47;1.33;;;;;;;45.33;13.25;98773.84;4974389;28;20037;-69
2022/08/04 08:47:59;;;;;;;3.72;1.50;;;;;;;45.34;13.09;98772.69;4973366;28;20026;-69
2022/08/04 08:50:49;;;;;;;4.07;1.45;;;;;;;45.26;13.19;98776.38;4914601;29;20043;-70
2022/08/04 08:53:52;;;;;;;5.32;1.25;;;;;;;45.21;13.10;98771.13;4899044;29;20032;-71
2022/08/04 08:56:27;;;;;;;3.55;1.38;;;;;;;45.26;13.07;98762.59;4914831;29;20032;-68
2022/08/04 08:59:25;;;;;;;4.67;1.37;;;;;;;45.29;13.59;98761.91;4883365;29;20040;-67
2022/08/04 09:02:02;;;;;;;5.60;1.40;;;;;;;44.85;13.59;98751.53;4893461;29;20044;-69
2022/08/04 09:04:52;;;;;;;2.40;1.30;;;;;;;44.84;13.81;98746.38;4895394;29;20032;-77
2022/08/04 09:07:50;;;;;;;4.93;1.20;;;;;;;44.24;14.13;98746.78;4894990;29;20036;-71
2022/08/04 09:10:40;;;;;;;7.43;1.60;;;;;;;43.88;14.46;98746.31;4839471;29;20094;-71
2022/08/04 09:13:47;;;;;;;4.40;1.30;;;;;;;43.70;14.63;98751.16;4824382;29;20059;-83
2022/08/04 09:16:20;;;;;;;21.50;3.05;;;;;;;43.12;16.67;98744.66;4806270;29;20118;-72
2022/08/04 09:18:57;;;;;;;19.77;2.20;;;;;;;42.61;16.75;98744.59;4806039;29;20061;-69
2022/08/04 09:21:30;;;;;;;12.52;2.30;;;;;;;42.06;17.00;98744.25;4824564;29;20041;-79
2022/08/04 09:24:27;;;;;;;10.40;1.80;;;;;;;41.45;17.82;98738.84;4838484;29;20053;-71
2022/08/04 09:26:56;;;;;;;;;;;;;;;41.25;19.14;98744.91;4833517;29;20057;-75
2022/08/04 09:29:56;;;;;;;6.85;1.38;;;;;;;41.33;17.09;98746.88;4827105;29;19927;-76
2022/08/04 09:32:37;;;;;;;16.10;2.20;;;;;;;40.96;16.94;98738.09;4842331;29;20053;-75
2022/08/04 09:35:25;;;;;;;7.90;2.47;;;;;;;40.45;17.84;98740.31;4842308;29;20172;-75
2022/08/04 09:38:10;;;;;;;19.52;3.15;;;;;;;40.21;17.24;98733.25;4840624;29;20521;-75
2022/08/04 09:40:56;;;;;;;26.35;5.82;;;;;;;40.33;21.23;98728.00;4843665;29;20037;-75
2022/08/04 09:43:39;;;;;;;9.70;2.20;;;;;;;40.54;18.63;98732.16;4857893;29;20152;-87
2022/08/04 09:46:09;;;;;;;12.98;2.85;;;;;;;40.65;19.02;98728.81;4860237;29;20040;-89
2022/08/04 09:49:06;;;;;;;52.88;24.23;;;;;;;40.50;24.76;98734.69;4910402;29;20455;-83
2022/08/04 09:52:00;;;;;;;17.42;7.07;;;;;;;40.45;21.97;98729.38;4936247;28;20031;-80
2022/08/04 09:54:49;;;;;;;15.27;4.18;;;;;;;40.37;19.42;98732.84;4932379;29;20087;-89
2022/08/04 09:57:25;;;;;;;16.70;4.15;;;;;;;40.19;20.46;98734.72;4917193;29;20506;-82
2022/08/04 10:00:09;;;;;;;13.77;2.85;;;;;;;40.34;21.85;98731.53;4930547;29;20043;-87
2022/08/04 10:02:37;;;;;;;7.35;2.20;;;;;;;40.22;19.34;98728.63;4933277;29;20031;-87
2022/08/04 10:05:04;;;;;;;6.00;2.03;;;;;;;40.11;20.17;98733.53;4917733;29;20040;-81
2022/08/04 10:08:29;;;;;;;5.70;2.03;;;;;;;39.85;24.20;98734.13;4900735;29;20028;-79
2022/08/04 10:11:22;;;;;;;7.30;1.50;;;;;;;39.41;18.85;98733.78;4876797;29;20045;-78
2022/08/04 10:13:51;;;;;;;4.32;1.52;;;;;;;39.30;19.45;98731.59;4873273;29;20034;-76
2022/08/04 10:16:23;;;;;;;3.65;1.20;;;;;;;39.11;19.38;98731.72;4862900;29;20041;-75
2022/08/04 10:19:09;;;;;;;3.13;1.33;;;;;;;38.85;18.12;98733.06;4878055;29;20044;-74
2022/08/04 10:21:52;;;;;;;2.00;1.20;;;;;;;38.66;17.93;98732.38;4895911;29;20041;-75
2022/08/04 10:24:55;;;;;;;5.20;1.30;;;;;;;38.44;17.43;98735.75;4879528;29;20513;-75
2022/08/04 10:27:31;;;;;;;4.40;1.30;;;;;;;38.29;19.65;98729.47;4895097;29;20151;-75
2022/08/04 10:30:10;;;;;;;6.05;1.17;;;;;;;38.17;19.13;98729.16;4880346;29;20470;-77
2022/08/04 10:33:03;;;;;;;5.20;1.25;;;;;;;38.24;18.83;98726.84;4884043;29;20543;-76
2022/08/04 10:35:38;;;;;;;5.03;1.17;;;;;;;38.30;18.33;98720.19;4898134;29;20181;-78
2022/08/04 10:38:23;;;;;;;8.90;1.20;;;;;;;38.43;17.91;98717.78;4898373;29;20028;-76
2022/08/04 10:40:59;;;;;;;5.90;1.27;;;;;;;38.40;18.05;98724.66;4949254;28;20046;-76
2022/08/04 10:43:34;;;;;;;3.60;1.20;;;;;;;38.42;17.40;98718.91;4956503;28;20097;-76
2022/08/04 10:46:18;;;;;;;3.38;1.10;;;;;;;38.31;17.26;98710.91;4973837;28;20039;-75
2022/08/04 10:48:52;;;;;;;5.75;1.20;;;;;;;38.46;16.62;98723.44;4972048;28;20045;-75
2022/08/04 10:51:21;;;;;;;1.88;0.90;;;;;;;38.48;16.38;98713.03;4972148;28;20038;-77
2022/08/04 10:53:50;;;;;;;2.85;0.98;;;;;;;38.50;16.35;98704.56;4973350;28;20030;-76
2022/08/04 10:56:32;;;;;;;15.20;1.55;;;;;;;38.62;16.59;98693.16;4972171;28;20544;-77
2022/08/04 10:59:02;;;;;;;8.75;1.20;;;;;;;38.67;17.03;98701.25;4972096;28;20031;-76
2022/08/04 11:01:47;;;;;;;3.85;1.23;;;;;;;38.57;16.32;98698.69;4972740;28;20055;-82
2022/08/04 11:04:40;;;;;;;2.83;1.10;;;;;;;38.54;16.97;98695.47;4972186;28;20047;-79
2022/08/04 11:07:05;;;;;;;3.83;0.90;;;;;;;38.50;17.43;98694.44;4955782;28;20023;-78
2022/08/04 11:09:31;;;;;;;3.95;1.10;;;;;;;38.42;16.71;98699.81;4971995;28;20049;-77
2022/08/04 11:12:05;;;;;;;5.90;1.15;;;;;;;38.31;16.87;98691.81;4972067;28;20035;-77
2022/08/04 11:15:06;;;;;;;4.55;1.10;;;;;;;38.17;17.28;98704.63;4971348;28;20031;-78
2022/08/04 11:17:37;;;;;;;5.53;1.10;;;;;;;38.20;17.08;98687.66;4916488;29;20055;-76
2022/08/04 11:20:15;;;;;;;1.58;1.00;;;;;;;38.30;16.87;98698.41;4916057;29;20420;-75
2022/08/04 11:22:51;;;;;;;2.17;1.20;;;;;;;38.28;16.12;98695.16;4915932;29;20031;-78
2022/08/04 11:25:25;;;;;;;4.93;1.00;;;;;;;38.32;15.41;98684.47;4916513;29;20047;-78
2022/08/04 11:28:25;;;;;;;1.42;0.90;;;;;;;38.25;14.80;98684.03;4900499;29;20515;-76
2022/08/04 11:30:58;;;;;;;4.40;1.23;;;;;;;38.15;14.66;98679.56;4932023;29;20043;-77
2022/08/04 11:33:33;;;;;;;4.47;1.00;;;;;;;37.96;14.02;98680.44;4916289;29;20039;-74
2022/08/04 11:36:28;;;;;;;2.17;1.17;;;;;;;37.76;15.34;98662.53;4916140;29;20554;-76
2022/08/04 11:39:17;;;;;;;2.90;1.00;;;;;;;37.61;15.91;98666.28;4917119;29;20039;-76
2022/08/04 11:42:01;;;;;;;1.77;1.02;;;;;;;37.42;15.76;98658.16;4932190;29;20042;-76
2022/08/04 11:44:48;;;;;;;2.45;0.95;;;;;;;37.26;16.58;98657.59;4932276;29;20092;-77
2022/08/04 11:47:24;;;;;;;1.50;0.90;;;;;;;37.20;16.71;98656.00;4933420;29;20055;-78
2022/08/04 11:50:04;;;;;;;4.45;1.20;;;;;;;37.10;17.78;98659.69;4921186;29;20035;-78
2022/08/04 11:52:30;;;;;;;1.70;1.05;;;;;;;37.06;17.97;98657.84;4927772;29;20075;-81
2022/08/04 11:54:57;;;;;;;3.22;1.25;;;;;;;36.99;18.04;98658.22;4941685;29;20450;-80
2022/08/04 11:57:23;;;;;;;3.10;1.30;;;;;;;36.99;17.59;98660.94;4940704;29;20039;-80
2022/08/04 11:59:49;;;;;;;4.70;1.10;;;;;;;36.91;17.04;98653.41;4939943;29;20036;-79
2022/08/04 12:02:49;;;;;;;4.30;1.10;;;;;;;36.81;16.39;98648.13;4955842;29;20039;-80
2022/08/04 12:05:17;;;;;;;4.53;1.08;;;;;;;36.90;16.60;98643.66;4917369;29;20646;-83
2022/08/04 12:07:58;;;;;;;5.63;1.40;;;;;;;36.88;16.69;98646.69;4900645;29;20043;-80
2022/08/04 12:10:35;;;;;;;2.42;1.10;;;;;;;36.85;16.26;98639.09;4901061;29;20567;-82
2022/08/04 12:13:27;;;;;;;1.25;1.02;;;;;;;36.76;15.41;98629.97;4915842;29;20504;-79
2022/08/04 12:16:08;;;;;;;2.08;1.10;;;;;;;36.70;15.66;98633.81;4835896;29;20125;-80
2022/08/04 12:18:41;;;;;;;2.00;1.10;;;;;;;36.58;15.36;98629.63;4837073;29;20137;-81